Time;durP1;ratioP1;P1;durP2;ratioP2;P2;SDS_P1;SDS_P2;PMS_P1;PMS_P2;Temp;Humidity;BMP_temperature;BMP_pressure;BME280_temperature;BME280_humidity;BME280_pressure;Samples;Min_cycle;Max_cycle;Signal;HPM_P1;HPM_P2
2023/01/02 00:01:47;;;;;;;1.20;0.85;;;;;;;4.82;100.00;98181.09;5086086;28;20052;-40
2023/01/02 00:04:12;;;;;;;1.13;0.77;;;;;;;4.71;100.00;98183.19;5085396;28;20101;-40
2023/01/02 00:06:57;;;;;;;0.80;0.60;;;;;;;4.67;100.00;98184.22;5085955;28;20040;-39
2023/01/02 00:10:19;;;;;;;0.73;0.50;;;;;;;4.57;100.00;98199.13;5118630;27;20050;-41
2023/01/02 00:12:45;;;;;;;0.50;0.40;;;;;;;4.53;100.00;98207.00;5085180;28;20721;-47
2023/01/02 00:16:07;;;;;;;0.30;0.30;;;;;;;4.49;100.00;98218.31;5089185;28;20043;-40
2023/01/02 00:18:35;;;;;;;0.40;0.38;;;;;;;4.42;100.00;98217.66;5086328;28;20100;-41
2023/01/02 00:21:23;;;;;;;1.70;0.60;;;;;;;4.32;100.00;98229.16;5086622;28;20134;-39
2023/01/02 00:23:49;;;;;;;0.70;0.45;;;;;;;4.29;100.00;98221.53;5088366;28;20043;-40
2023/01/02 00:26:34;;;;;;;0.68;0.40;;;;;;;4.25;100.00;98238.78;5108991;28;20453;-39
2023/01/02 00:29:00;;;;;;;0.45;0.45;;;;;;;4.24;100.00;98249.94;5096500;28;20036;-40
2023/01/02 00:31:45;;;;;;;0.40;0.40;;;;;;;4.22;100.00;98245.75;5087525;28;20039;-41
2023/01/02 00:34:29;;;;;;;1.25;0.90;;;;;;;4.17;100.00;98247.66;5086276;28;20522;-40
2023/01/02 00:37:14;;;;;;;0.82;0.57;;;;;;;4.13;100.00;98256.34;5120687;27;20044;-40
2023/01/02 00:39:40;;;;;;;0.70;0.60;;;;;;;4.06;100.00;98253.13;5101761;28;20430;-43
2023/01/02 00:42:06;;;;;;;0.85;0.70;;;;;;;4.03;100.00;98271.19;5069871;28;20043;-39
2023/01/02 00:45:09;;;;;;;1.25;0.70;;;;;;;4.03;100.00;98296.91;5088373;28;20636;-39
2023/01/02 00:47:54;;;;;;;1.10;0.60;;;;;;;4.06;100.00;98301.97;5088005;28;20040;-40
2023/01/02 00:50:57;;;;;;;1.15;0.70;;;;;;;4.04;100.00;98306.31;5089793;28;20036;-40
2023/01/02 00:53:41;;;;;;;1.20;0.70;;;;;;;4.05;100.00;98300.28;5088689;28;20533;-39
2023/01/02 00:56:44;;;;;;;1.23;0.90;;;;;;;4.06;100.00;98317.41;5096150;28;20442;-39
2023/01/02 00:59:32;;;;;;;1.00;0.90;;;;;;;4.08;100.00;98314.81;5103477;28;20074;-38
2023/01/02 01:02:16;;;;;;;1.33;1.10;;;;;;;4.02;100.00;98331.25;5089327;28;20118;-39
2023/01/02 01:05:01;;;;;;;1.88;1.35;;;;;;;3.95;100.00;98322.03;5092571;28;20044;-39
2023/01/02 01:08:23;;;;;;;1.60;1.35;;;;;;;3.95;100.00;98326.31;5098482;28;20064;-39
2023/01/02 01:11:26;;;;;;;1.50;1.20;;;;;;;3.92;100.00;98342.69;5080551;28;20043;-41
2023/01/02 01:14:11;;;;;;;2.28;1.30;;;;;;;3.90;100.00;98354.75;5088734;28;20443;-38
2023/01/02 01:16:55;;;;;;;1.45;0.95;;;;;;;3.85;100.00;98372.03;5102809;28;20156;-39
2023/01/02 01:19:58;;;;;;;1.20;0.98;;;;;;;3.76;100.00;98370.56;5111084;28;20089;-38
2023/01/02 01:22:42;;;;;;;1.35;1.10;;;;;;;3.77;100.00;98359.38;5091665;28;20036;-39
2023/01/02 01:25:11;;;;;;;1.48;1.02;;;;;;;3.58;100.00;98329.94;5092067;28;20043;-40
2023/01/02 01:27:58;;;;;;;0.82;0.60;;;;;;;3.74;100.00;98358.63;5090577;28;20503;-40
2023/01/02 01:30:42;;;;;;;1.10;0.80;;;;;;;3.65;100.00;98380.31;5006089;28;20060;-39
2023/01/02 01:33:08;;;;;;;2.88;0.80;;;;;;;3.61;100.00;98372.72;5067705;28;20044;-39
2023/01/02 01:35:34;;;;;;;1.15;0.80;;;;;;;3.64;100.00;98395.75;5083272;28;20032;-39
2023/01/02 01:38:00;;;;;;;1.30;0.70;;;;;;;3.63;100.00;98402.63;5089191;28;20086;-40
2023/01/02 01:40:44;;;;;;;0.68;0.50;;;;;;;3.43;100.00;98386.91;5091061;28;20032;-40
2023/01/02 01:43:51;;;;;;;0.65;0.60;;;;;;;3.58;100.00;98425.03;5108489;28;20046;-39
2023/01/02 01:46:41;;;;;;;0.88;0.65;;;;;;;3.59;100.00;98428.44;5091170;28;20044;-40
2023/01/02 01:49:25;;;;;;;0.85;0.60;;;;;;;3.63;100.00;98427.47;5089983;28;20053;-40
2023/01/02 01:51:53;;;;;;;0.75;0.65;;;;;;;3.37;100.00;98421.28;5104730;27;20036;-39
2023/01/02 01:54:26;;;;;;;0.68;0.57;;;;;;;3.44;100.00;98436.56;5093005;28;20070;-39
2023/01/02 01:56:56;;;;;;;0.93;0.60;;;;;;;3.51;100.00;98456.06;5108125;28;20047;-40
2023/01/02 01:59:41;;;;;;;1.45;0.80;;;;;;;3.59;100.00;98466.97;5104861;28;20043;-39
2023/01/02 02:02:07;;;;;;;1.40;0.70;;;;;;;3.59;100.00;98461.84;5082800;28;20093;-38
2023/01/02 02:04:51;;;;;;;0.80;0.50;;;;;;;3.55;100.00;98437.13;5084923;28;20037;-39
2023/01/02 02:07:36;;;;;;;0.95;0.52;;;;;;;3.54;100.00;98446.53;5088221;28;20101;-40
2023/01/02 02:10:22;;;;;;;0.43;0.40;;;;;;;3.70;100.00;98476.09;5098458;28;20047;-39
2023/01/02 02:12:48;;;;;;;0.57;0.43;;;;;;;3.58;100.00;98485.84;5094142;28;20048;-40
2023/01/02 02:15:17;;;;;;;0.50;0.40;;;;;;;3.60;100.00;98504.66;5089947;28;20044;-39
2023/01/02 02:17:57;;;;;;;0.55;0.50;;;;;;;3.63;100.00;98509.69;5073705;28;20054;-40
2023/01/02 02:21:20;;;;;;;0.45;0.45;;;;;;;3.68;100.00;98518.97;5111247;28;20636;-39
2023/01/02 02:24:00;;;;;;;0.52;0.40;;;;;;;3.71;100.00;98525.78;5081436;28;20055;-39
2023/01/02 02:26:45;;;;;;;1.58;0.50;;;;;;;3.67;100.00;98524.16;5089073;28;20135;-39
2023/01/02 02:29:32;;;;;;;0.45;0.28;;;;;;;3.64;100.00;98535.38;5102435;28;20032;-38
2023/01/02 02:32:20;;;;;;;0.40;0.30;;;;;;;3.62;100.00;98543.97;5069315;28;20598;-39
2023/01/02 02:35:18;;;;;;;0.17;0.17;;;;;;;3.66;100.00;98548.19;5095995;28;20230;-41
2023/01/02 02:38:11;;;;;;;0.28;0.20;;;;;;;3.65;100.00;98543.91;5085733;28;20066;-39
2023/01/02 02:40:58;;;;;;;0.68;0.30;;;;;;;3.63;100.00;98545.66;5089580;28;20082;-40
2023/01/02 02:44:02;;;;;;;0.65;0.30;;;;;;;3.59;100.00;98562.06;5088227;28;20047;-39
2023/01/02 02:46:31;;;;;;;0.50;0.32;;;;;;;3.58;100.00;98560.34;5085476;28;20036;-39
2023/01/02 02:49:47;;;;;;;0.30;0.20;;;;;;;3.52;100.00;98568.22;5100855;28;20414;-40
2023/01/02 02:52:18;;;;;;;1.63;0.30;;;;;;;3.35;100.00;98566.03;5090494;28;20082;-40
2023/01/02 02:55:04;;;;;;;0.28;0.15;;;;;;;3.20;100.00;98568.97;5093790;28;20047;-40
2023/01/02 02:58:07;;;;;;;0.20;0.20;;;;;;;3.02;100.00;98582.22;5108134;28;20491;-39
2023/01/02 03:00:33;;;;;;;1.70;0.30;;;;;;;2.71;100.00;98551.22;5096132;28;20044;-39
2023/01/02 03:03:18;;;;;;;0.40;0.10;;;;;;;2.78;100.00;98586.97;5089006;28;20433;-40
2023/01/02 03:06:07;;;;;;;2.17;0.93;;;;;;;2.71;100.00;98587.16;5099361;28;20039;-39
2023/01/02 03:08:58;;;;;;;1.85;0.47;;;;;;;2.70;100.00;98606.84;5109443;28;20035;-40
2023/01/02 03:11:54;;;;;;;0.65;0.30;;;;;;;2.67;100.00;98609.44;5108670;28;20043;-40
2023/01/02 03:15:09;;;;;;;0.20;0.20;;;;;;;2.62;100.00;98608.69;5077104;28;20039;-40
2023/01/02 03:18:12;;;;;;;0.35;0.30;;;;;;;2.55;100.00;98619.97;5109138;28;20071;-38
2023/01/02 03:20:44;;;;;;;1.40;0.20;;;;;;;2.43;100.00;98633.88;5102775;28;20040;-40
2023/01/02 03:23:18;;;;;;;0.50;0.40;;;;;;;2.22;100.00;98613.75;5089292;28;20184;-39
2023/01/02 03:25:45;;;;;;;0.28;0.22;;;;;;;2.34;100.00;98641.75;5067606;28;20070;-39
2023/01/02 03:28:30;;;;;;;0.55;0.30;;;;;;;2.37;100.00;98666.47;5108981;28;20130;-40
2023/01/02 03:30:57;;;;;;;1.92;0.43;;;;;;;2.07;100.00;98619.16;5107546;28;20749;-40
2023/01/02 03:33:32;;;;;;;0.70;0.22;;;;;;;2.40;100.00;98674.13;5108847;28;20043;-39
2023/01/02 03:36:08;;;;;;;0.50;0.30;;;;;;;2.35;100.00;98689.59;5096899;28;20431;-40
2023/01/02 03:38:59;;;;;;;1.13;0.75;;;;;;;2.02;100.00;98657.69;5093106;28;20089;-46
2023/01/02 03:41:33;;;;;;;0.57;0.40;;;;;;;2.06;100.00;98689.22;5071227;28;20044;-39
2023/01/02 03:44:18;;;;;;;0.80;0.52;;;;;;;1.95;100.00;98684.25;5089261;28;20044;-40
2023/01/02 03:47:08;;;;;;;0.75;0.30;;;;;;;2.13;100.00;98712.19;5107689;28;20039;-39
2023/01/02 03:49:39;;;;;;;0.70;0.30;;;;;;;2.16;100.00;98726.66;5090444;28;20062;-39
2023/01/02 03:52:07;;;;;;;0.45;0.28;;;;;;;1.91;100.00;98697.16;5109535;27;20075;-39
2023/01/02 03:54:33;;;;;;;0.52;0.43;;;;;;;1.81;100.00;98690.47;5100817;28;20622;-39
2023/01/02 03:57:18;;;;;;;1.25;0.38;;;;;;;1.93;100.00;98732.16;5087628;28;20126;-39
2023/01/02 04:00:16;;;;;;;0.75;0.40;;;;;;;1.86;100.00;98729.69;5093030;28;20043;-38
2023/01/02 04:02:49;;;;;;;1.95;0.30;;;;;;;1.77;100.00;98748.63;5069094;28;20043;-39
2023/01/02 04:05:25;;;;;;;0.40;0.30;;;;;;;1.73;100.00;98749.50;5081830;28;20057;-37
2023/01/02 04:08:15;;;;;;;2.90;0.30;;;;;;;1.65;100.00;98764.16;5107348;28;20049;-39
2023/01/02 04:10:44;;;;;;;1.10;0.70;;;;;;;1.56;100.00;98765.13;5107017;28;20172;-39
2023/01/02 04:13:33;;;;;;;2.17;0.77;;;;;;;1.36;100.00;98738.91;5098962;28;20067;-38
2023/01/02 04:16:01;;;;;;;1.20;0.40;;;;;;;1.51;100.00;98776.31;5104425;28;20281;-40
2023/01/02 04:18:47;;;;;;;1.35;0.30;;;;;;;1.43;100.00;98762.72;5073600;28;20061;-41
2023/01/02 04:21:16;;;;;;;0.30;0.30;;;;;;;1.40;100.00;98763.63;5106723;28;20043;-40
2023/01/02 04:24:11;;;;;;;2.35;0.65;;;;;;;1.37;100.00;98767.91;5109443;28;20036;-39
2023/01/02 04:27:01;;;;;;;0.50;0.32;;;;;;;1.33;100.00;98767.13;5096562;28;20089;-40
2023/01/02 04:29:27;;;;;;;0.65;0.30;;;;;;;1.32;100.00;98769.69;5106478;28;20043;-39
2023/01/02 04:32:18;;;;;;;1.67;0.55;;;;;;;1.27;100.00;98778.28;5070564;28;20430;-39
2023/01/02 04:34:45;;;;;;;0.60;0.30;;;;;;;1.24;100.00;98791.13;5090429;28;20114;-39
2023/01/02 04:37:29;;;;;;;2.50;0.60;;;;;;;1.22;100.00;98784.31;5101280;28;20040;-40
2023/01/02 04:39:57;;;;;;;0.40;0.40;;;;;;;1.15;100.00;98780.16;5080969;28;20452;-39
2023/01/02 04:42:23;;;;;;;0.65;0.45;;;;;;;1.18;100.00;98793.75;5101423;28;20126;-40
2023/01/02 04:44:49;;;;;;;1.60;1.00;;;;;;;1.16;100.00;98803.16;5083902;28;20578;-40
2023/01/02 04:47:52;;;;;;;2.00;0.57;;;;;;;1.15;100.00;98816.81;5088682;28;20113;-40
2023/01/02 04:50:37;;;;;;;0.77;0.40;;;;;;;1.14;100.00;98842.44;5094216;28;20039;-39
2023/01/02 04:53:03;;;;;;;1.05;0.45;;;;;;;1.09;100.00;98823.72;5107593;28;20103;-38
2023/01/02 04:55:29;;;;;;;1.50;0.40;;;;;;;0.91;100.00;98814.50;5097190;28;20127;-39
2023/01/02 04:57:56;;;;;;;0.32;0.32;;;;;;;1.01;100.00;98846.81;5072770;28;20131;-39
2023/01/02 05:00:23;;;;;;;1.63;0.40;;;;;;;1.02;100.00;98840.00;5097996;28;20885;-40
2023/01/02 05:02:49;;;;;;;1.13;0.50;;;;;;;0.96;100.00;98842.59;5087042;28;20051;-39
2023/01/02 05:05:33;;;;;;;1.27;0.50;;;;;;;0.69;100.00;98816.41;5092941;28;20047;-40
2023/01/02 05:08:17;;;;;;;2.20;0.50;;;;;;;0.73;100.00;98825.75;5108684;28;20054;-39
2023/01/02 05:11:05;;;;;;;0.60;0.45;;;;;;;0.90;100.00;98881.03;5107518;28;20044;-40
2023/01/02 05:13:50;;;;;;;0.40;0.40;;;;;;;0.89;100.00;98884.47;5098614;28;20079;-39
2023/01/02 05:16:16;;;;;;;0.50;0.25;;;;;;;0.84;100.00;98893.03;5103841;28;20046;-39
2023/01/02 05:18:42;;;;;;;1.02;0.40;;;;;;;0.57;100.00;98841.25;5089958;28;20035;-40
2023/01/02 05:23:47;;;;;;;1.38;0.43;;;;;;;0.82;100.00;98897.31;5106999;28;20051;-40
2023/01/02 05:24:33;;;;;;;0.30;0.30;;;;;;;0.79;100.00;98905.00;5100024;28;20537;-39
2023/01/02 05:26:59;;;;;;;1.60;0.35;;;;;;;0.75;100.00;98907.59;5065319;28;20143;-39
2023/01/02 05:29:43;;;;;;;1.35;0.47;;;;;;;0.54;100.00;98869.41;5069713;28;20378;-39
2023/01/02 05:32:09;;;;;;;2.17;0.40;;;;;;;0.71;100.00;98916.16;5070909;28;20571;-39
2023/01/02 05:34:35;;;;;;;0.43;0.30;;;;;;;0.65;100.00;98904.25;5105697;28;20052;-40
2023/01/02 05:37:20;;;;;;;1.08;0.50;;;;;;;0.50;100.00;98894.16;5086712;28;20036;-41
2023/01/02 05:40:04;;;;;;;2.28;0.40;;;;;;;0.63;100.00;98918.75;5096371;28;20035;-40
2023/01/02 05:42:49;;;;;;;2.72;0.50;;;;;;;0.61;100.00;98938.41;5106098;28;20120;-40
2023/01/02 05:45:34;;;;;;;0.57;0.30;;;;;;;0.58;100.00;98953.75;5104033;28;20058;-40
2023/01/02 05:48:18;;;;;;;1.05;0.30;;;;;;;0.53;100.00;98946.97;5124069;27;20051;-41
2023/01/02 05:51:03;;;;;;;0.90;0.40;;;;;;;0.50;100.00;98947.84;5095946;28;20097;-39
2023/01/02 05:54:06;;;;;;;0.45;0.30;;;;;;;0.48;100.00;98949.56;5091471;28;20048;-39
2023/01/02 05:57:09;;;;;;;0.32;0.17;;;;;;;0.45;100.00;98954.69;5100331;28;20051;-40
2023/01/02 05:59:54;;;;;;;1.10;0.38;;;;;;;0.44;100.00;98963.22;5080278;28;20131;-38
2023/01/02 06:02:56;;;;;;;1.55;0.50;;;;;;;0.44;100.00;98973.44;5108012;28;20067;-39
2023/01/02 06:05:41;;;;;;;1.27;0.50;;;;;;;0.43;100.00;98979.41;5103028;28;20146;-41
2023/01/02 06:08:07;;;;;;;0.60;0.40;;;;;;;0.22;100.00;98962.47;5073727;28;20533;-40
2023/01/02 06:10:33;;;;;;;0.30;0.30;;;;;;;0.42;100.00;99000.72;5093401;28;20039;-40
2023/01/02 06:12:59;;;;;;;0.95;0.32;;;;;;;0.23;100.00;98963.31;5090928;28;20036;-41
2023/01/02 06:15:24;;;;;;;2.95;0.40;;;;;;;0.42;100.00;99023.72;5090895;28;20100;-41
2023/01/02 06:17:50;;;;;;;0.98;0.38;;;;;;;0.41;100.00;99020.34;5072860;28;20036;-39
2023/01/02 06:20:35;;;;;;;1.17;0.40;;;;;;;0.41;100.00;99022.91;5085476;28;20039;-40
2023/01/02 06:23:01;;;;;;;1.45;0.40;;;;;;;0.29;100.00;99002.50;5099390;28;20100;-39
2023/01/02 06:25:26;;;;;;;2.20;0.60;;;;;;;0.41;100.00;99028.03;5100975;28;20044;-40
2023/01/02 06:28:11;;;;;;;1.17;0.43;;;;;;;0.42;100.00;99029.69;5089873;28;20507;-39
2023/01/02 06:31:03;;;;;;;0.85;0.47;;;;;;;0.41;100.00;99038.25;5098973;28;20122;-40
2023/01/02 06:33:29;;;;;;;1.05;0.40;;;;;;;0.40;100.00;99033.97;5100216;28;20082;-40
2023/01/02 06:36:14;;;;;;;0.60;0.40;;;;;;;0.42;100.00;99047.59;5102887;28;20525;-39
2023/01/02 06:38:40;;;;;;;1.23;0.38;;;;;;;0.28;100.00;99030.59;5104693;28;20089;-40
2023/01/02 06:41:26;;;;;;;0.43;0.20;;;;;;;0.41;100.00;99063.81;5085330;28;20515;-39
2023/01/02 06:43:53;;;;;;;1.67;0.50;;;;;;;0.22;100.00;99030.63;5070736;28;20038;-40
2023/01/02 06:46:37;;;;;;;0.73;0.40;;;;;;;0.40;100.00;99072.34;5091936;28;20511;-41
2023/01/02 06:49:03;;;;;;;2.25;0.52;;;;;;;0.19;100.00;99049.41;5106531;28;20039;-39
2023/01/02 06:51:48;;;;;;;1.27;0.30;;;;;;;0.40;100.00;99094.50;5090842;28;20055;-40
2023/01/02 06:54:13;;;;;;;1.45;0.75;;;;;;;0.40;100.00;99095.34;5101248;28;20127;-40
2023/01/02 06:56:41;;;;;;;1.52;0.25;;;;;;;0.42;100.00;99090.19;5098349;28;20052;-39
2023/01/02 06:59:11;;;;;;;1.92;0.30;;;;;;;0.24;100.00;99062.16;5095226;28;20043;-39
2023/01/02 07:01:36;;;;;;;1.65;0.50;;;;;;;0.45;100.00;99097.88;5106059;28;20082;-40
2023/01/02 07:04:02;;;;;;;2.30;0.35;;;;;;;0.51;100.00;99110.66;5109325;28;20071;-40
2023/01/02 07:06:28;;;;;;;3.13;0.73;;;;;;;0.60;100.00;99108.06;5106644;28;20088;-39
2023/01/02 07:09:13;;;;;;;0.80;0.40;;;;;;;0.82;100.00;99099.44;5089605;28;20496;-40
2023/01/02 07:11:57;;;;;;;1.17;0.40;;;;;;;1.68;100.00;99115.09;5091759;28;20419;-40
2023/01/02 07:14:42;;;;;;;2.42;0.45;;;;;;;2.33;100.00;99109.38;5109316;28;20061;-40
2023/01/02 07:17:08;;;;;;;3.63;0.65;;;;;;;2.77;100.00;99124.25;5078556;28;20063;-46
2023/01/02 07:19:34;;;;;;;0.63;0.30;;;;;;;2.99;100.00;99115.41;5076371;28;20505;-40
2023/01/02 07:22:00;;;;;;;2.28;0.63;;;;;;;3.29;100.00;99123.59;5105536;28;20072;-40
2023/01/02 07:24:44;;;;;;;1.20;0.60;;;;;;;3.59;100.00;99132.56;5088672;28;20063;-40
2023/01/02 07:27:29;;;;;;;0.70;0.40;;;;;;;4.13;97.70;99128.25;5096594;28;20060;-40
2023/01/02 07:29:55;;;;;;;0.80;0.50;;;;;;;4.28;95.07;99132.28;5090121;28;20138;-40
2023/01/02 07:32:40;;;;;;;1.52;0.60;;;;;;;4.01;94.04;99144.72;5108853;28;20035;-41
2023/01/02 07:35:06;;;;;;;0.95;0.50;;;;;;;3.92;95.18;99144.88;5089717;28;20035;-39
2023/01/02 07:37:32;;;;;;;0.60;0.40;;;;;;;4.09;94.77;99152.28;5089412;28;20036;-38
2023/01/02 07:39:58;;;;;;;2.40;0.43;;;;;;;4.17;94.20;99151.31;5084134;28;20048;-39
2023/01/02 07:42:24;;;;;;;2.00;0.30;;;;;;;4.21;91.53;99140.09;5098836;28;20035;-39
2023/01/02 07:44:50;;;;;;;0.32;0.30;;;;;;;3.89;84.87;99126.06;5105392;28;20039;-38
2023/01/02 07:47:34;;;;;;;1.67;0.73;;;;;;;4.34;85.32;99145.03;5097877;28;20400;-40
2023/01/02 07:50:19;;;;;;;1.48;0.35;;;;;;;4.80;84.51;99148.44;5095901;28;20427;-40
2023/01/02 07:52:45;;;;;;;4.30;0.75;;;;;;;4.90;82.20;99152.53;5106163;28;20036;-40
2023/01/02 07:55:29;;;;;;;1.83;0.50;;;;;;;4.87;80.96;99154.28;5102305;28;20047;-39
2023/01/02 07:58:13;;;;;;;0.63;0.20;;;;;;;5.13;80.92;99164.09;5099006;28;20058;-40
2023/01/02 08:00:39;;;;;;;2.50;0.70;;;;;;;5.42;77.17;99162.56;5095050;28;20105;-40
2023/01/02 08:03:05;;;;;;;1.63;0.50;;;;;;;5.92;75.90;99168.31;5093987;28;20043;-39
2023/01/02 08:05:49;;;;;;;2.35;0.60;;;;;;;6.27;76.37;99168.34;5097361;28;20521;-40
2023/01/02 08:08:16;;;;;;;1.52;0.30;;;;;;;6.28;77.69;99171.75;5088932;28;20077;-39
2023/01/02 08:11:10;;;;;;;1.27;0.40;;;;;;;6.84;76.47;99175.44;5109400;28;20035;-40
2023/01/02 08:13:36;;;;;;;1.95;0.68;;;;;;;7.48;73.82;99182.19;5101197;28;20131;-41
2023/01/02 08:16:25;;;;;;;0.65;0.50;;;;;;;7.89;73.05;99177.47;5076027;28;20040;-40
2023/01/02 08:18:54;;;;;;;0.65;0.38;;;;;;;7.62;69.20;99172.28;5103867;28;20411;-44
2023/01/02 08:21:38;;;;;;;1.25;0.50;;;;;;;7.63;70.16;99181.72;5087748;28;20035;-41
2023/01/02 08:25:00;;;;;;;0.60;0.40;;;;;;;7.20;68.08;99192.50;5080565;28;20032;-40
2023/01/02 08:27:25;;;;;;;2.78;0.77;;;;;;;7.73;70.90;99190.06;5101229;28;20043;-40
2023/01/02 08:29:51;;;;;;;4.70;0.63;;;;;;;8.15;68.12;99154.19;5109014;28;20522;-40
2023/01/02 08:32:17;;;;;;;4.45;0.65;;;;;;;8.97;68.05;99187.66;5106647;28;20038;-39
2023/01/02 08:35:03;;;;;;;3.03;0.80;;;;;;;9.65;66.63;99199.81;5106369;28;20070;-41
2023/01/02 08:37:29;;;;;;;3.28;0.50;;;;;;;8.91;63.58;99186.13;5079833;28;20511;-40
2023/01/02 08:39:55;;;;;;;1.00;0.30;;;;;;;8.69;65.16;99161.03;5084991;28;20047;-39
2023/01/02 08:42:21;;;;;;;2.30;0.52;;;;;;;8.20;64.01;99160.06;5106244;28;20352;-39
2023/01/02 08:44:47;;;;;;;0.55;0.40;;;;;;;8.19;64.98;99186.00;5087576;28;20574;-40
2023/01/02 08:47:13;;;;;;;2.03;0.57;;;;;;;8.36;64.05;99187.19;5089447;28;20416;-40
2023/01/02 08:49:39;;;;;;;2.05;0.50;;;;;;;8.08;62.40;99187.19;5089079;28;20035;-40
2023/01/02 08:52:05;;;;;;;1.23;0.60;;;;;;;8.23;64.42;99185.00;5070165;28;20044;-39
2023/01/02 08:54:31;;;;;;;1.80;1.15;;;;;;;8.54;63.03;99197.81;5086323;28;20037;-39
2023/01/02 08:57:15;;;;;;;2.13;0.65;;;;;;;8.66;60.36;99200.84;5087125;28;20043;-40
2023/01/02 09:00:00;;;;;;;1.33;0.60;;;;;;;9.35;63.74;99205.25;5071439;28;20160;-40
2023/01/02 09:02:44;;;;;;;1.02;0.57;;;;;;;10.05;62.70;99199.09;5086873;28;20048;-41
2023/01/02 09:05:47;;;;;;;0.85;0.38;;;;;;;10.49;60.70;99212.91;5085660;28;20040;-39
2023/01/02 09:08:15;;;;;;;2.65;1.23;;;;;;;9.79;57.92;99213.94;5086851;28;20043;-40
2023/01/02 09:10:41;;;;;;;2.13;0.75;;;;;;;9.46;59.80;99204.00;5067436;28;20110;-39
2023/01/02 09:13:07;;;;;;;2.65;0.85;;;;;;;9.63;61.42;99222.41;5086536;28;20476;-39
2023/01/02 09:15:33;;;;;;;1.15;0.80;;;;;;;9.57;59.56;99223.47;5091579;28;20580;-39
2023/01/02 09:17:59;;;;;;;1.90;0.60;;;;;;;9.98;61.35;99231.41;5108214;28;20130;-40
2023/01/02 09:20:25;;;;;;;0.85;0.65;;;;;;;10.76;60.41;99242.13;5112607;28;20039;-39
2023/01/02 09:23:09;;;;;;;1.10;0.60;;;;;;;11.02;56.10;99239.25;5103814;28;20047;-46
2023/01/02 09:25:35;;;;;;;2.13;0.90;;;;;;;11.32;59.23;99248.31;5099683;28;20036;-42
2023/01/02 09:28:01;;;;;;;2.13;0.80;;;;;;;11.91;58.62;99255.22;5090950;28;20050;-43
2023/01/02 09:30:27;;;;;;;1.95;0.60;;;;;;;11.71;54.63;99209.22;5090598;28;20511;-42
2023/01/02 09:33:12;;;;;;;2.15;0.60;;;;;;;11.42;56.20;99256.56;5099986;28;20048;-42
2023/01/02 09:35:38;;;;;;;1.67;0.88;;;;;;;11.62;59.63;99261.69;5089202;28;20050;-46
2023/01/02 09:38:04;;;;;;;1.38;0.40;;;;;;;12.28;56.13;99265.59;5089905;28;20043;-43
2023/01/02 09:40:30;;;;;;;1.52;0.75;;;;;;;12.64;54.73;99265.56;5090084;28;20434;-42
2023/01/02 09:42:57;;;;;;;2.00;0.73;;;;;;;12.39;52.95;99266.84;5089930;28;20058;-44
2023/01/02 09:45:24;;;;;;;2.42;0.85;;;;;;;11.80;51.55;99270.47;5093827;28;20035;-42
2023/01/02 09:48:10;;;;;;;0.93;0.50;;;;;;;12.06;55.35;99269.28;5095344;28;20159;-43
2023/01/02 09:50:36;;;;;;;1.48;0.68;;;;;;;11.74;52.15;99270.75;5078108;28;20426;-42
2023/01/02 09:53:38;;;;;;;1.65;0.85;;;;;;;11.25;53.40;99285.91;5123945;27;20031;-43
2023/01/02 09:56:13;;;;;;;1.63;0.47;;;;;;;10.38;53.91;99265.31;5108861;28;20084;-43
2023/01/02 09:58:48;;;;;;;1.88;0.75;;;;;;;8.81;55.31;99283.25;5073367;28;20048;-43
2023/01/02 10:01:31;;;;;;;3.80;0.73;;;;;;;7.45;56.07;99272.78;5074072;28;20519;-44
2023/01/02 10:04:44;;;;;;;1.38;0.60;;;;;;;6.38;58.75;99285.06;5127244;27;20079;-43
2023/01/02 10:07:38;;;;;;;0.73;0.55;;;;;;;5.62;61.46;99243.78;5036359;28;20052;-42
2023/01/02 10:11:01;;;;;;;1.05;0.50;;;;;;;5.05;60.80;99277.59;5020458;28;20068;-42
2023/01/02 10:13:44;;;;;;;2.65;0.60;;;;;;;4.70;62.65;99288.53;5089516;28;20112;-41
2023/01/02 10:16:35;;;;;;;0.77;0.50;;;;;;;4.44;63.51;99299.25;5090137;28;20032;-42
2023/01/02 10:19:06;;;;;;;1.63;0.47;;;;;;;3.94;64.67;99255.41;5069593;28;20113;-42
2023/01/02 10:21:51;;;;;;;1.05;0.43;;;;;;;3.93;64.18;99300.84;5078560;28;20181;-42
2023/01/02 10:24:34;;;;;;;3.00;0.50;;;;;;;3.61;63.05;99305.59;5089295;28;20064;-41
2023/01/02 10:27:02;;;;;;;0.70;0.20;;;;;;;3.31;62.25;99319.63;5095824;28;20044;-42
2023/01/02 10:29:48;;;;;;;1.13;0.30;;;;;;;3.14;62.82;99321.53;5109517;28;20050;-42
2023/01/02 10:32:57;;;;;;;1.00;0.40;;;;;;;3.13;65.73;99335.25;5102524;28;20515;-42
2023/01/02 10:35:47;;;;;;;2.88;0.70;;;;;;;2.95;64.65;99341.41;5090484;28;20064;-41
2023/01/02 10:38:14;;;;;;;1.20;0.20;;;;;;;2.70;65.36;99314.25;5089410;28;20049;-42
2023/01/02 10:40:43;;;;;;;1.13;0.60;;;;;;;2.64;64.33;99342.53;5055586;28;20058;-42
2023/01/02 10:43:10;;;;;;;1.75;0.50;;;;;;;2.61;64.33;99353.69;5102698;28;20075;-42
2023/01/02 10:45:54;;;;;;;1.83;0.88;;;;;;;2.41;65.29;99327.31;5108965;28;20039;-43
2023/01/02 10:48:39;;;;;;;1.27;0.68;;;;;;;2.73;67.22;99368.97;5104839;28;20045;-41
2023/01/02 10:51:11;;;;;;;1.10;0.57;;;;;;;2.86;67.56;99360.31;5072757;28;20142;-42
2023/01/02 10:53:37;;;;;;;2.33;0.45;;;;;;;4.15;65.77;99376.00;5069191;28;20488;-43
2023/01/02 10:56:23;;;;;;;1.48;0.32;;;;;;;4.83;63.00;99372.41;5090361;28;20050;-41
2023/01/02 10:59:21;;;;;;;1.63;0.50;;;;;;;5.64;61.93;99383.88;5092844;28;20051;-43
2023/01/02 11:01:55;;;;;;;1.95;0.60;;;;;;;6.21;61.86;99395.63;5089339;28;20056;-43
2023/01/02 11:04:41;;;;;;;2.25;0.68;;;;;;;6.40;60.25;99393.47;5095159;28;20449;-43
2023/01/02 11:07:23;;;;;;;0.50;0.40;;;;;;;6.29;60.63;99387.69;5102232;28;20036;-43
2023/01/02 11:09:56;;;;;;;2.13;1.17;;;;;;;5.97;59.18;99387.56;5105657;27;20503;-43
2023/01/02 11:12:22;;;;;;;1.15;0.40;;;;;;;5.58;58.94;99397.72;5071919;28;20039;-42
2023/01/02 11:15:11;;;;;;;1.45;0.70;;;;;;;5.73;60.68;99405.16;5088915;28;20143;-43
2023/01/02 11:17:40;;;;;;;2.80;0.90;;;;;;;5.52;61.62;99408.16;5094325;28;20053;-41
2023/01/02 11:20:21;;;;;;;2.65;0.55;;;;;;;5.12;58.03;99428.63;5084149;28;20429;-41
2023/01/02 11:22:47;;;;;;;1.45;0.55;;;;;;;5.17;60.02;99438.84;5088665;28;20040;-42
2023/01/02 11:25:25;;;;;;;2.05;0.65;;;;;;;5.45;59.95;99440.06;5088612;28;20044;-42
2023/01/02 11:28:34;;;;;;;0.80;0.60;;;;;;;5.48;59.56;99460.66;5098612;28;20510;-42
2023/01/02 11:31:21;;;;;;;0.35;0.20;;;;;;;5.19;58.12;99458.53;5094073;28;20057;-42
2023/01/02 11:33:48;;;;;;;2.45;0.70;;;;;;;4.83;57.80;99430.78;5101307;28;20036;-44
2023/01/02 11:36:16;;;;;;;4.90;0.40;;;;;;;5.20;58.73;99472.28;5109422;28;20873;-42
2023/01/02 11:39:20;;;;;;;1.88;0.70;;;;;;;5.42;58.82;99455.59;5106714;28;20067;-42
2023/01/02 11:45:04;;;;;;;1.25;0.55;;;;;;;4.75;59.40;99473.84;5091287;28;20032;-43
2023/01/02 11:47:56;;;;;;;1.02;0.50;;;;;;;4.49;59.22;99476.78;5089824;28;20054;-43
2023/01/02 11:50:46;;;;;;;2.33;0.50;;;;;;;4.10;58.66;99468.69;5098822;28;20039;-43
2023/01/02 11:53:11;;;;;;;0.88;0.40;;;;;;;4.53;58.94;99488.72;5088066;28;20032;-42
2023/01/02 11:56:03;;;;;;;3.28;0.70;;;;;;;4.49;57.90;99474.22;5107782;28;20053;-41
2023/01/02 11:59:00;;;;;;;2.13;0.60;;;;;;;4.78;58.34;99477.22;5091866;28;20050;-42
2023/01/02 12:01:50;;;;;;;1.50;0.60;;;;;;;4.78;58.30;99438.59;5104287;28;20079;-42
2023/01/02 12:04:37;;;;;;;1.73;0.77;;;;;;;5.25;57.61;99475.63;5101552;28;20074;-42
2023/01/02 12:07:44;;;;;;;1.00;0.47;;;;;;;5.39;57.15;99490.00;5107344;28;20458;-43
2023/01/02 12:10:24;;;;;;;1.75;0.47;;;;;;;5.00;55.66;99503.53;5058155;28;20043;-42
2023/01/02 12:13:14;;;;;;;0.43;0.40;;;;;;;5.12;56.24;99508.50;5107071;28;20050;-42
2023/01/02 12:16:13;;;;;;;2.22;0.60;;;;;;;5.52;54.97;99498.38;5108680;28;20040;-42
2023/01/02 12:19:04;;;;;;;2.05;0.60;;;;;;;5.54;54.82;99494.94;5080033;28;20518;-42
2023/01/02 12:22:08;;;;;;;1.90;0.80;;;;;;;5.22;55.40;99502.31;5089182;28;20430;-43
2023/01/02 12:25:11;;;;;;;1.23;0.70;;;;;;;4.91;55.15;99494.22;5099118;28;20043;-41
2023/01/02 12:28:00;;;;;;;0.77;0.20;;;;;;;4.30;55.48;99494.16;5090261;28;20092;-42
2023/01/02 12:30:29;;;;;;;1.42;0.60;;;;;;;4.07;55.62;99512.47;5071209;28;20031;-42
2023/01/02 12:33:22;;;;;;;1.17;0.70;;;;;;;3.91;55.74;99512.63;5068897;28;20078;-41
2023/01/02 12:36:26;;;;;;;3.45;0.60;;;;;;;3.53;56.59;99508.69;5036350;28;20079;-42
2023/01/02 12:39:10;;;;;;;1.23;0.60;;;;;;;3.18;57.25;99514.13;5070173;28;20031;-42
2023/01/02 12:42:01;;;;;;;1.15;0.70;;;;;;;2.91;58.02;99520.31;5086557;28;20611;-41